createdAt,value
2023-04-18T00:02:29.324Z,9.77
2023-04-18T00:04:58.198Z,7.12
2023-04-18T00:07:26.177Z,10.88
2023-04-18T00:09:54.109Z,6.05
2023-04-18T00:12:22.702Z,7.15
2023-04-18T00:14:53.505Z,4.70
2023-04-18T00:17:21.613Z,10.32
2023-04-18T00:19:50.043Z,11.25
2023-04-18T00:22:23.101Z,10.10
2023-04-18T00:24:52.721Z,9.82
2023-04-18T00:27:21.013Z,11.38
2023-04-18T00:29:49.585Z,10.85
2023-04-18T00:32:18.349Z,10.35
2023-04-18T00:37:32.817Z,9.90
2023-04-18T00:40:00.802Z,9.40
2023-04-18T00:42:29.705Z,10.18
2023-04-18T00:44:58.054Z,9.63
2023-04-18T00:47:26.364Z,9.27
2023-04-18T00:49:55.263Z,10.45
2023-04-18T00:52:27.600Z,10.23
2023-04-18T00:54:56.017Z,11.53
2023-04-18T00:57:25.048Z,11.32
2023-04-18T00:59:53.099Z,9.40
2023-04-18T01:02:21.361Z,10.20
2023-04-18T01:04:49.789Z,10.55
2023-04-18T01:07:17.809Z,9.43
2023-04-18T01:09:46.079Z,10.63
2023-04-18T01:12:14.407Z,9.07
2023-04-18T01:14:43.703Z,9.18
2023-04-18T01:17:13.632Z,8.57
2023-04-18T01:19:42.088Z,8.00
2023-04-18T01:22:13.723Z,8.45
2023-04-18T01:24:42.550Z,9.23
2023-04-18T01:27:15.178Z,8.43
2023-04-18T01:29:43.605Z,9.27
2023-04-18T01:32:11.572Z,9.27
2023-04-18T01:34:39.390Z,9.43
2023-04-18T01:37:07.715Z,9.07
2023-04-18T01:39:35.605Z,10.15
2023-04-18T01:42:03.577Z,8.88
2023-04-18T01:44:31.840Z,11.02
2023-04-18T01:46:59.748Z,10.30
2023-04-18T01:49:27.717Z,11.38
2023-04-18T01:51:56.020Z,10.35
2023-04-18T01:54:24.021Z,10.43
2023-04-18T01:56:53.590Z,10.43
2023-04-18T01:59:21.864Z,9.60
2023-04-18T02:01:49.802Z,8.85
2023-04-18T02:04:18.454Z,14.90
2023-04-18T02:06:47.205Z,11.90
2023-04-18T02:09:15.884Z,11.30
2023-04-18T02:11:44.241Z,12.15
2023-04-18T02:14:13.060Z,12.60
2023-04-18T02:16:41.829Z,12.25
2023-04-18T02:19:09.735Z,11.70
2023-04-18T02:21:37.677Z,11.45
2023-04-18T02:24:05.914Z,13.43
2023-04-18T02:26:33.891Z,13.18
2023-04-18T02:29:01.810Z,13.73
2023-04-18T02:31:30.832Z,13.32
2023-04-18T02:33:58.705Z,11.55
2023-04-18T02:36:28.462Z,12.63
2023-04-18T02:38:57.022Z,14.63
2023-04-18T02:41:25.005Z,12.85
2023-04-18T02:43:55.508Z,11.98
2023-04-18T02:46:25.012Z,10.73
2023-04-18T02:48:53.596Z,11.48
2023-04-18T02:51:22.499Z,11.75
2023-04-18T02:53:55.512Z,12.82
2023-04-18T02:56:23.716Z,11.18
2023-04-18T02:58:53.305Z,13.15
2023-04-18T03:01:23.111Z,11.48
2023-04-18T03:03:51.682Z,11.55
2023-04-18T03:06:20.621Z,12.05
2023-04-18T03:08:49.175Z,12.05
2023-04-18T03:11:17.732Z,11.18
2023-04-18T03:13:46.341Z,11.57
2023-04-18T03:16:14.512Z,14.25
2023-04-18T03:18:43.275Z,11.63
2023-04-18T03:21:12.170Z,12.05
2023-04-18T03:23:40.538Z,12.13
2023-04-18T03:26:09.179Z,12.07
2023-04-18T03:28:37.908Z,12.68
2023-04-18T03:31:06.184Z,12.23
2023-04-18T03:33:35.319Z,12.18
2023-04-18T03:36:06.503Z,12.50
2023-04-18T03:38:34.520Z,11.75
2023-04-18T03:41:03.596Z,12.37
2023-04-18T03:43:32.780Z,13.98
2023-04-18T03:46:00.831Z,14.00
2023-04-18T03:48:30.006Z,13.07
2023-04-18T03:51:00.077Z,13.27
2023-04-18T03:53:28.156Z,14.30
2023-04-18T03:55:56.986Z,14.98
2023-04-18T03:58:26.655Z,15.38
2023-04-18T04:00:54.838Z,16.65
2023-04-18T04:03:23.125Z,15.32
2023-04-18T04:05:51.175Z,14.85
2023-04-18T04:08:19.214Z,13.60
2023-04-18T04:10:47.539Z,13.23
2023-04-18T04:13:15.522Z,14.02
2023-04-18T04:15:44.044Z,10.52
2023-04-18T04:18:12.292Z,12.30
2023-04-18T04:20:40.494Z,13.18
2023-04-18T04:23:10.423Z,12.43
2023-04-18T04:25:39.746Z,12.93
2023-04-18T04:28:08.650Z,11.45
2023-04-18T04:30:38.607Z,14.45
2023-04-18T04:33:07.998Z,13.02
2023-04-18T04:35:37.227Z,15.82
2023-04-18T04:38:06.317Z,12.57
2023-04-18T04:40:38.825Z,12.63
2023-04-18T04:43:17.756Z,12.85
2023-04-18T04:45:58.825Z,12.77
2023-04-18T04:48:30.456Z,12.20
2023-04-18T04:53:47.285Z,11.70
2023-04-18T04:56:16.224Z,13.73
2023-04-18T04:58:45.800Z,11.68
2023-04-18T05:01:20.517Z,12.37
2023-04-18T05:03:52.924Z,12.18
2023-04-18T05:06:22.865Z,12.68
2023-04-18T05:08:51.307Z,11.32
2023-04-18T05:11:19.353Z,10.95
2023-04-18T05:13:47.651Z,10.68
2023-04-18T05:16:15.612Z,10.07
2023-04-18T05:18:43.657Z,12.10
2023-04-18T05:21:12.010Z,10.27
2023-04-18T05:23:40.581Z,6.50
2023-04-18T05:26:11.842Z,6.10
2023-04-18T05:28:39.790Z,6.07
2023-04-18T05:31:07.742Z,5.60
2023-04-18T05:33:36.134Z,5.85
2023-04-18T05:36:04.190Z,5.43
2023-04-18T05:38:32.117Z,6.60
2023-04-18T05:41:00.774Z,6.25
2023-04-18T05:43:28.829Z,8.15
2023-04-18T05:45:57.844Z,8.60
2023-04-18T05:48:26.471Z,6.40
2023-04-18T05:50:54.443Z,6.87
2023-04-18T05:53:22.516Z,5.62
2023-04-18T05:55:50.975Z,7.37
2023-04-18T05:58:19.945Z,5.82
2023-04-18T06:00:48.338Z,7.43
2023-04-18T06:03:17.235Z,6.78
2023-04-18T06:05:45.929Z,7.60
2023-04-18T06:08:17.300Z,6.20
2023-04-18T06:10:45.418Z,5.85
2023-04-18T06:13:16.638Z,7.05
2023-04-18T06:15:45.016Z,6.85
2023-04-18T06:18:12.870Z,5.47
2023-04-18T06:20:51.411Z,5.68
2023-04-18T06:23:19.656Z,6.25
2023-04-18T06:25:47.956Z,6.07
2023-04-18T06:28:16.374Z,5.80
2023-04-18T06:30:45.979Z,5.60
2023-04-18T06:33:15.711Z,5.45
2023-04-18T06:35:43.609Z,5.40
2023-04-18T06:38:12.233Z,4.78
2023-04-18T06:40:40.137Z,5.12
2023-04-18T06:43:07.963Z,4.90
2023-04-18T06:45:36.464Z,4.90
2023-04-18T06:48:04.755Z,5.05
2023-04-18T06:50:32.654Z,4.70
2023-04-18T06:53:00.774Z,4.97
2023-04-18T06:55:29.088Z,4.20
2023-04-18T06:57:56.924Z,5.20
2023-04-18T07:00:25.216Z,5.30
2023-04-18T07:02:53.283Z,5.35
2023-04-18T07:05:21.537Z,4.80
2023-04-18T07:07:49.891Z,4.53
2023-04-18T07:10:17.892Z,4.45
2023-04-18T07:12:47.901Z,4.85
2023-04-18T07:15:16.151Z,4.72
2023-04-18T07:17:44.066Z,4.25
2023-04-18T07:20:13.804Z,4.53
2023-04-18T07:22:42.718Z,4.05
2023-04-18T07:25:10.770Z,5.03
2023-04-18T07:27:38.734Z,4.28
2023-04-18T07:30:07.908Z,4.20
2023-04-18T07:32:36.127Z,5.25
2023-04-18T07:35:04.725Z,3.67
2023-04-18T07:37:33.381Z,5.00
2023-04-18T07:42:46.682Z,4.40
2023-04-18T07:45:15.780Z,4.93
2023-04-18T07:47:43.810Z,3.85
2023-04-18T07:50:12.160Z,4.47
2023-04-18T07:52:40.120Z,4.32
2023-04-18T07:55:08.372Z,4.85
2023-04-18T07:57:36.555Z,5.05
2023-04-18T08:00:06.741Z,3.95
2023-04-18T08:02:42.212Z,5.45
2023-04-18T08:05:11.080Z,3.95
2023-04-18T08:07:39.118Z,4.55
2023-04-18T08:10:07.484Z,3.20
2023-04-18T08:12:36.962Z,4.90
2023-04-18T08:15:06.058Z,3.05
2023-04-18T08:17:35.012Z,4.00
2023-04-18T08:20:08.011Z,4.47
2023-04-18T08:22:44.075Z,3.53
2023-04-18T08:25:19.356Z,3.33
2023-04-18T08:27:47.638Z,4.05
2023-04-18T08:30:15.725Z,4.45
2023-04-18T08:32:44.078Z,4.20
2023-04-18T08:35:12.071Z,3.65
2023-04-18T08:37:40.122Z,4.62
2023-04-18T08:40:08.872Z,3.60
2023-04-18T08:42:38.921Z,3.20
2023-04-18T08:45:07.323Z,2.78
2023-04-18T08:47:36.125Z,3.72
2023-04-18T08:50:04.371Z,4.60
2023-04-18T08:52:32.888Z,4.93
2023-04-18T08:55:03.196Z,4.20
2023-04-18T08:57:33.503Z,3.90
2023-04-18T09:00:01.867Z,4.15
2023-04-18T09:02:43.364Z,4.40
2023-04-18T09:05:13.710Z,4.53
2023-04-18T09:07:42.461Z,4.47
2023-04-18T09:10:10.908Z,5.15
2023-04-18T09:12:57.120Z,4.75
2023-04-18T09:15:30.055Z,5.12
2023-04-18T09:18:01.951Z,4.05
2023-04-18T09:20:42.727Z,5.47
2023-04-18T09:23:14.986Z,5.18
2023-04-18T09:25:45.414Z,4.17
2023-04-18T09:28:33.818Z,5.20
2023-04-18T09:31:10.526Z,3.17
2023-04-18T09:33:43.329Z,3.20
2023-04-18T09:36:25.258Z,4.47
2023-04-18T09:38:56.724Z,4.07
2023-04-18T09:41:25.383Z,4.37
2023-04-18T09:44:15.039Z,4.25
2023-04-18T09:46:47.152Z,3.70
2023-04-18T09:49:17.333Z,3.75
2023-04-18T09:51:46.502Z,4.12
2023-04-18T09:54:18.513Z,3.92
2023-04-18T09:56:50.709Z,3.40
2023-04-18T09:59:50.586Z,4.73
2023-04-18T10:02:22.866Z,3.15
2023-04-18T10:04:54.709Z,3.50
2023-04-18T10:07:26.105Z,3.97
2023-04-18T10:09:54.483Z,3.80
2023-04-18T10:12:22.711Z,3.67
2023-04-18T10:14:51.270Z,4.22
2023-04-18T10:17:20.578Z,4.07
2023-04-18T10:20:05.969Z,3.72
2023-04-18T10:22:35.774Z,3.60
2023-04-18T10:25:03.951Z,4.55
2023-04-18T10:27:50.480Z,4.55
2023-04-18T10:30:19.023Z,4.68
2023-04-18T10:32:47.088Z,4.97
2023-04-18T10:35:14.880Z,4.97
2023-04-18T10:40:37.688Z,4.85
2023-04-18T10:43:07.117Z,4.40
2023-04-18T10:45:36.740Z,4.70
2023-04-18T10:48:32.928Z,4.12
2023-04-18T10:51:14.456Z,3.47
2023-04-18T10:53:52.711Z,4.62
2023-04-18T10:56:21.989Z,3.65
2023-04-18T10:58:53.443Z,4.10
2023-04-18T11:01:32.729Z,4.03
2023-04-18T11:04:01.617Z,4.40
2023-04-18T11:06:31.614Z,4.60
2023-04-18T11:09:12.555Z,4.45
2023-04-18T11:11:41.896Z,5.03
2023-04-18T11:14:09.926Z,4.80
2023-04-18T11:16:38.875Z,4.90
2023-04-18T11:19:22.320Z,4.53
2023-04-18T11:24:26.826Z,4.28
2023-04-18T11:26:56.455Z,4.07
2023-04-18T11:29:24.908Z,4.12
2023-04-18T11:31:56.639Z,4.35
2023-04-18T11:34:31.014Z,4.50
2023-04-18T11:36:59.422Z,4.03
2023-04-18T11:39:27.861Z,3.62
2023-04-18T11:41:57.479Z,4.50
2023-04-18T11:44:26.852Z,4.37
2023-04-18T11:46:55.150Z,4.32
2023-04-18T11:49:26.581Z,4.05
2023-04-18T11:51:54.557Z,4.10
2023-04-18T11:54:42.653Z,4.68
2023-04-18T11:57:28.401Z,4.70
2023-04-18T12:00:00.386Z,5.45
2023-04-18T12:02:39.603Z,4.50
2023-04-18T12:05:08.583Z,4.47
2023-04-18T12:07:41.857Z,4.35
2023-04-18T12:10:26.565Z,3.62
2023-04-18T12:12:56.089Z,5.15
2023-04-18T12:15:27.564Z,3.28
2023-04-18T12:18:03.861Z,4.22
2023-04-18T12:20:36.854Z,4.68
2023-04-18T12:23:05.026Z,5.10
2023-04-18T12:25:33.775Z,4.05
2023-04-18T12:28:06.571Z,4.78
2023-04-18T12:30:37.378Z,4.53
2023-04-18T12:33:05.812Z,4.40
2023-04-18T12:35:33.964Z,3.90
2023-04-18T12:40:49.494Z,3.90
2023-04-18T12:43:17.747Z,4.18
2023-04-18T12:45:48.541Z,4.85
2023-04-18T12:48:16.699Z,4.25
2023-04-18T12:50:44.589Z,5.03
2023-04-18T12:53:24.262Z,5.20
2023-04-18T12:58:37.736Z,4.97
2023-04-18T13:01:05.924Z,3.20
2023-04-18T13:03:34.578Z,4.90
2023-04-18T13:06:02.733Z,3.33
2023-04-18T13:08:43.194Z,3.83
2023-04-18T13:11:11.072Z,4.53
2023-04-18T13:13:39.239Z,3.90
2023-04-18T13:16:19.498Z,3.87
2023-04-18T13:18:47.636Z,4.90
2023-04-18T13:21:15.448Z,5.45
2023-04-18T13:23:43.433Z,5.55
2023-04-18T13:26:11.880Z,5.78
2023-04-18T13:28:39.789Z,6.07
2023-04-18T13:31:07.681Z,6.12
2023-04-18T13:33:35.847Z,6.25
2023-04-18T13:36:04.162Z,6.80
2023-04-18T13:38:44.256Z,6.75
2023-04-18T13:41:13.253Z,7.78
2023-04-18T13:43:41.508Z,6.32
2023-04-18T13:46:12.976Z,5.35
2023-04-18T13:48:52.891Z,5.95
2023-04-18T13:51:21.158Z,6.22
2023-04-18T13:54:01.534Z,6.93
2023-04-18T13:56:29.930Z,7.80
2023-04-18T13:58:57.894Z,9.05
2023-04-18T14:01:25.928Z,6.50
2023-04-18T14:03:55.054Z,7.03
2023-04-18T14:06:41.287Z,5.60
2023-04-18T14:09:21.790Z,6.32
2023-04-18T14:11:51.406Z,7.72
2023-04-18T14:14:19.758Z,6.60
2023-04-18T14:16:47.609Z,7.28
2023-04-18T14:19:15.715Z,6.50
2023-04-18T14:21:56.272Z,7.20
2023-04-18T14:24:24.254Z,7.62
2023-04-18T14:26:52.546Z,6.03
2023-04-18T14:29:20.551Z,8.45
2023-04-18T14:31:48.758Z,10.80
2023-04-18T14:34:31.133Z,9.32
2023-04-18T14:37:00.660Z,10.30
2023-04-18T14:39:29.171Z,11.85
2023-04-18T14:41:57.891Z,12.10
2023-04-18T14:44:37.949Z,13.52
2023-04-18T14:47:18.377Z,11.00
2023-04-18T14:49:58.823Z,12.70
2023-04-18T14:52:27.085Z,15.63
2023-04-18T14:54:54.959Z,14.43
2023-04-18T14:57:23.262Z,11.70
2023-04-18T14:59:53.182Z,15.30
2023-04-18T15:02:46.487Z,14.82
2023-04-18T15:05:15.825Z,16.02
2023-04-18T15:07:45.296Z,14.95
2023-04-18T15:10:14.053Z,14.93
2023-04-18T15:15:28.268Z,10.45
2023-04-18T15:17:57.300Z,10.32
2023-04-18T15:20:25.207Z,9.55
2023-04-18T15:22:53.148Z,9.90
2023-04-18T15:25:22.074Z,8.65
2023-04-18T15:27:51.018Z,7.85
2023-04-18T15:30:19.571Z,9.05
2023-04-18T15:32:48.874Z,9.18
2023-04-18T15:35:18.636Z,7.12
2023-04-18T15:37:46.620Z,7.45
2023-04-18T15:40:19.441Z,5.82
2023-04-18T15:42:51.383Z,7.25
2023-04-18T15:45:32.239Z,7.43
2023-04-18T15:48:13.549Z,6.30
2023-04-18T15:50:42.654Z,6.60
2023-04-18T15:53:10.704Z,5.70
2023-04-18T15:55:38.540Z,6.03
2023-04-18T15:58:06.896Z,5.85
2023-04-18T16:00:59.371Z,5.78
2023-04-18T16:03:28.216Z,5.15
2023-04-18T16:06:10.482Z,5.82
2023-04-18T16:08:38.997Z,6.78
2023-04-18T16:11:10.192Z,6.05
2023-04-18T16:13:38.531Z,5.72
2023-04-18T16:16:06.746Z,6.50
2023-04-18T16:18:35.114Z,6.25
2023-04-18T16:21:03.508Z,6.00
2023-04-18T16:23:43.784Z,5.87
2023-04-18T16:26:12.182Z,6.30
2023-04-18T16:28:52.481Z,6.95
2023-04-18T16:31:34.497Z,7.10
2023-04-18T16:34:07.914Z,5.65
2023-04-18T16:36:45.182Z,6.78
2023-04-18T16:39:25.603Z,5.50
2023-04-18T16:41:54.859Z,6.43
2023-04-18T16:44:22.787Z,6.68
2023-04-18T16:47:05.289Z,6.78
2023-04-18T16:49:33.904Z,8.07
2023-04-18T16:52:02.230Z,6.47
2023-04-18T16:54:30.590Z,6.70
2023-04-18T16:57:00.202Z,5.72
2023-04-18T16:59:29.159Z,7.15
2023-04-18T17:01:57.208Z,5.97
2023-04-18T17:04:27.352Z,7.15
2023-04-18T17:06:58.464Z,7.50
2023-04-18T17:09:42.472Z,6.80
2023-04-18T17:12:10.558Z,9.15
2023-04-18T17:14:39.657Z,9.85
2023-04-18T17:17:07.697Z,8.20
2023-04-18T17:19:36.440Z,8.70
2023-04-18T17:22:04.621Z,7.65
2023-04-18T17:24:32.645Z,7.35
2023-04-18T17:27:01.521Z,7.07
2023-04-18T17:29:29.876Z,6.85
2023-04-18T17:31:58.080Z,6.25
2023-04-18T17:34:26.238Z,7.00
2023-04-18T17:36:54.550Z,6.35
2023-04-18T17:39:22.926Z,6.30
2023-04-18T17:41:51.206Z,6.28
2023-04-18T17:44:19.429Z,6.72
2023-04-18T17:46:48.856Z,6.62
2023-04-18T17:49:18.027Z,6.90
2023-04-18T17:51:46.222Z,6.90
2023-04-18T17:54:14.774Z,5.90
2023-04-18T17:56:42.659Z,5.50
2023-04-18T17:59:11.392Z,5.45
2023-04-18T18:01:40.299Z,5.53
2023-04-18T18:04:08.586Z,6.65
2023-04-18T18:06:36.547Z,5.62
2023-04-18T18:09:04.682Z,5.53
2023-04-18T18:11:33.105Z,5.05
2023-04-18T18:14:01.155Z,5.57
2023-04-18T18:16:29.997Z,5.15
2023-04-18T18:18:58.990Z,4.32
2023-04-18T18:21:50.408Z,5.68
2023-04-18T18:24:25.910Z,5.62
2023-04-18T18:26:55.369Z,4.95
2023-04-18T18:29:24.451Z,5.35
2023-04-18T18:31:52.483Z,4.65
2023-04-18T18:37:07.709Z,5.12
2023-04-18T18:39:36.977Z,5.50
2023-04-18T18:42:05.011Z,4.97
2023-04-18T18:44:34.140Z,5.37
2023-04-18T18:47:02.081Z,4.82
2023-04-18T18:49:29.937Z,4.80
2023-04-18T18:51:58.232Z,4.75
2023-04-18T18:54:26.399Z,4.93
2023-04-18T18:56:54.515Z,4.70
2023-04-18T18:59:22.902Z,5.10
2023-04-18T19:01:51.295Z,5.10
2023-04-18T19:04:20.668Z,5.25
2023-04-18T19:06:51.870Z,4.47
2023-04-18T19:09:20.933Z,5.10
2023-04-18T19:11:49.332Z,4.87
2023-04-18T19:14:17.318Z,5.28
2023-04-18T19:16:46.307Z,5.43
2023-04-18T19:19:15.915Z,4.97
2023-04-18T19:21:46.275Z,5.37
2023-04-18T19:24:14.952Z,4.75
2023-04-18T19:26:46.032Z,5.20
2023-04-18T19:29:14.711Z,5.47
2023-04-18T19:31:44.043Z,4.87
2023-04-18T19:34:13.789Z,4.85
2023-04-18T19:36:42.192Z,4.40
2023-04-18T19:39:10.137Z,5.50
2023-04-18T19:41:38.192Z,3.92
2023-04-18T19:44:06.456Z,4.20
2023-04-18T19:46:34.423Z,5.40
2023-04-18T19:49:02.385Z,4.70
2023-04-18T19:51:31.575Z,4.35
2023-04-18T19:53:59.591Z,4.35
2023-04-18T19:56:27.277Z,4.85
2023-04-18T19:58:55.655Z,4.47
2023-04-18T20:01:24.464Z,3.90
2023-04-18T20:03:58.925Z,4.43
2023-04-18T20:06:27.154Z,5.10
2023-04-18T20:08:55.662Z,4.87
2023-04-18T20:11:53.876Z,4.15
2023-04-18T20:14:22.072Z,4.37
2023-04-18T20:17:02.329Z,4.10
2023-04-18T20:19:30.855Z,4.05
2023-04-18T20:22:01.388Z,3.95
2023-04-18T20:24:32.227Z,4.80
2023-04-18T20:27:04.649Z,3.83
2023-04-18T20:29:32.729Z,4.37
2023-04-18T20:32:13.727Z,3.95
2023-04-18T20:34:41.699Z,3.95
2023-04-18T20:37:10.466Z,4.40
2023-04-18T20:39:40.302Z,9.27
2023-04-18T20:42:14.749Z,4.78
2023-04-18T20:44:44.484Z,6.65
2023-04-18T20:47:14.729Z,6.35
2023-04-18T20:49:48.193Z,4.12
2023-04-18T20:52:16.143Z,4.32
2023-04-18T20:54:44.171Z,3.90
2023-04-18T20:57:24.482Z,4.30
2023-04-18T20:59:52.656Z,4.75
2023-04-18T21:02:21.029Z,4.37
2023-04-18T21:04:49.648Z,4.40
2023-04-18T21:07:17.937Z,4.62
2023-04-18T21:09:45.823Z,5.07
2023-04-18T21:12:14.136Z,5.78
2023-04-18T21:14:42.201Z,6.60
2023-04-18T21:17:10.838Z,6.40
2023-04-18T21:19:57.827Z,7.37
2023-04-18T21:22:37.828Z,5.85
2023-04-18T21:25:07.707Z,5.72
2023-04-18T21:27:47.468Z,5.53
2023-04-18T21:30:16.196Z,4.93
2023-04-18T21:32:56.354Z,4.20
2023-04-18T21:35:37.013Z,4.78
2023-04-18T21:38:05.204Z,4.80
2023-04-18T21:40:52.244Z,5.32
2023-04-18T21:43:20.245Z,5.28
2023-04-18T21:45:48.567Z,4.30
2023-04-18T21:48:28.603Z,4.97
2023-04-18T21:51:13.855Z,4.60
2023-04-18T21:56:22.173Z,4.80
2023-04-18T21:59:02.188Z,5.10
2023-04-18T22:01:42.199Z,5.12
2023-04-18T22:04:12.745Z,4.97
2023-04-18T22:06:41.831Z,4.82
2023-04-18T22:09:10.075Z,4.85
2023-04-18T22:11:38.688Z,4.12
2023-04-18T22:14:20.255Z,4.82
2023-04-18T22:16:50.348Z,5.15
2023-04-18T22:19:19.541Z,5.32
2023-04-18T22:21:47.468Z,5.35
2023-04-18T22:24:15.599Z,5.15
2023-04-18T22:27:11.947Z,5.43
2023-04-18T22:29:39.867Z,5.90
2023-04-18T22:32:08.123Z,4.95
2023-04-18T22:34:48.124Z,4.72
2023-04-18T22:37:16.653Z,4.78
2023-04-18T22:39:45.174Z,5.05
2023-04-18T22:42:12.950Z,4.45
2023-04-18T22:44:41.308Z,4.45
2023-04-18T22:47:09.273Z,5.12
2023-04-18T22:49:37.225Z,4.60
2023-04-18T22:52:06.499Z,4.80
2023-04-18T22:54:38.781Z,4.60
2023-04-18T22:57:07.365Z,4.45
2023-04-18T22:59:35.580Z,4.80
2023-04-18T23:02:03.621Z,4.72
2023-04-18T23:04:33.155Z,5.30
2023-04-18T23:07:01.211Z,5.05
2023-04-18T23:09:31.500Z,5.53
2023-04-18T23:11:59.712Z,5.47
2023-04-18T23:14:27.876Z,5.10
2023-04-18T23:16:55.948Z,5.68
2023-04-18T23:19:24.173Z,5.72
2023-04-18T23:21:52.105Z,5.25
2023-04-18T23:24:19.959Z,4.50
2023-04-18T23:26:48.246Z,4.60
2023-04-18T23:29:16.221Z,5.32
2023-04-18T23:31:44.148Z,5.32
2023-04-18T23:34:12.561Z,4.80
2023-04-18T23:36:40.866Z,5.47
2023-04-18T23:39:09.147Z,5.72
2023-04-18T23:41:37.535Z,6.12
2023-04-18T23:44:06.037Z,4.97
2023-04-18T23:46:36.225Z,5.93
2023-04-18T23:49:05.069Z,4.68
2023-04-18T23:51:32.838Z,5.57
2023-04-18T23:54:00.617Z,5.78
2023-04-18T23:56:30.000Z,5.97
2023-04-18T23:58:58.339Z,5.40
